Time;durP1;ratioP1;P1;durP2;ratioP2;P2;SDS_P1;SDS_P2;PMS_P1;PMS_P2;Temp;Humidity;BMP_temperature;BMP_pressure;BME280_temperature;BME280_humidity;BME280_pressure;Samples;Min_cycle;Max_cycle;Signal;HPM_P1;HPM_P2
2023/10/01 00:00:09;;;;;;;5.40;3.92;;;;;;;;;;4979733;28;20687;-73
2023/10/01 00:02:41;;;;;;;6.03;4.03;;;;;;;;;;4969764;28;20360;-73
2023/10/01 00:05:08;;;;;;;5.20;3.78;;;;;;;;;;4973477;28;20398;-73
2023/10/01 00:07:38;;;;;;;4.57;3.03;;;;;;;;;;4960368;28;20653;-72
2023/10/01 00:10:10;;;;;;;6.15;3.17;;;;;;;;;;4978159;28;20592;-74
2023/10/01 00:12:46;;;;;;;4.07;3.30;;;;;;;;;;4962618;28;20689;-74
2023/10/01 00:15:18;;;;;;;5.53;3.40;;;;;;;;;;4967289;28;20219;-72
2023/10/01 00:17:46;;;;;;;4.03;2.90;;;;;;;;;;4964175;28;20226;-73
2023/10/01 00:20:22;;;;;;;9.38;3.67;;;;;;;;;;4990042;28;20756;-73
2023/10/01 00:22:57;;;;;;;11.95;3.78;;;;;;;;;;4967501;28;20726;-72
2023/10/01 00:25:27;;;;;;;4.10;3.03;;;;;;;;;;4960622;28;20634;-73
2023/10/01 00:27:53;;;;;;;7.00;3.05;;;;;;;;;;4968037;28;20317;-72
2023/10/01 00:30:21;;;;;;;4.07;3.22;;;;;;;;;;4948649;28;20222;-72
2023/10/01 00:32:49;;;;;;;6.25;3.35;;;;;;;;;;4976528;28;20310;-72
2023/10/01 00:35:17;;;;;;;5.38;3.40;;;;;;;;;;4967425;28;20237;-73
2023/10/01 00:37:45;;;;;;;6.60;3.40;;;;;;;;;;4950314;28;20238;-72
2023/10/01 00:40:13;;;;;;;4.07;3.28;;;;;;;;;;4943558;28;20268;-73
2023/10/01 00:42:41;;;;;;;5.20;3.83;;;;;;;;;;4939869;28;20665;-73
2023/10/01 00:45:14;;;;;;;4.25;3.80;;;;;;;;;;4973922;28;20228;-73
2023/10/01 00:47:46;;;;;;;4.43;3.58;;;;;;;;;;4959082;28;20242;-73
2023/10/01 00:50:15;;;;;;;4.88;3.20;;;;;;;;;;4959307;28;20214;-73
2023/10/01 00:52:41;;;;;;;7.82;4.00;;;;;;;;;;4948994;28;20232;-73
2023/10/01 00:55:11;;;;;;;8.15;4.22;;;;;;;;;;4956151;28;20226;-73
2023/10/01 00:57:39;;;;;;;4.23;3.47;;;;;;;;;;4970243;28;20310;-73
2023/10/01 01:00:13;;;;;;;4.70;3.53;;;;;;;;;;4955324;28;20214;-73
2023/10/01 01:03:05;;;;;;;4.70;3.78;;;;;;;;;;4960101;28;20234;-73
2023/10/01 01:05:57;;;;;;;6.07;4.17;;;;;;;;;;4951702;28;20226;-72
2023/10/01 01:08:46;;;;;;;5.65;3.97;;;;;;;;;;4968289;28;20230;-73
2023/10/01 01:11:15;;;;;;;4.45;3.53;;;;;;;;;;4956450;28;20749;-73
2023/10/01 01:13:43;;;;;;;4.45;3.97;;;;;;;;;;4961623;28;20234;-73
2023/10/01 01:16:13;;;;;;;7.32;4.75;;;;;;;;;;4954524;28;20230;-73
2023/10/01 01:18:42;;;;;;;6.80;4.40;;;;;;;;;;4944971;28;20633;-73
2023/10/01 01:21:10;;;;;;;5.57;3.97;;;;;;;;;;4960793;28;20592;-73
2023/10/01 01:23:41;;;;;;;6.25;4.05;;;;;;;;;;4946276;28;20230;-73
2023/10/01 01:26:10;;;;;;;4.20;3.75;;;;;;;;;;4965018;28;20281;-73
2023/10/01 01:28:41;;;;;;;5.07;4.10;;;;;;;;;;4967231;28;20234;-73
2023/10/01 01:31:10;;;;;;;6.80;4.90;;;;;;;;;;4967307;28;20218;-73
2023/10/01 01:33:52;;;;;;;8.25;4.40;;;;;;;;;;4972153;28;20223;-73
2023/10/01 01:36:21;;;;;;;5.88;4.20;;;;;;;;;;4962946;28;20317;-73
2023/10/01 01:39:26;;;;;;;4.93;3.90;;;;;;;;;;4950450;28;20219;-73
2023/10/01 01:41:52;;;;;;;5.70;4.50;;;;;;;;;;4965898;28;20244;-72
2023/10/01 01:44:19;;;;;;;10.27;4.25;;;;;;;;;;4967710;28;20692;-73
2023/10/01 01:46:59;;;;;;;5.13;4.20;;;;;;;;;;4957627;28;20313;-72
2023/10/01 01:49:25;;;;;;;5.65;4.20;;;;;;;;;;4974954;28;20221;-73
2023/10/01 01:52:05;;;;;;;5.03;4.22;;;;;;;;;;4965638;28;20237;-73
2023/10/01 01:54:39;;;;;;;5.10;3.78;;;;;;;;;;4957475;28;20229;-73
2023/10/01 01:57:13;;;;;;;6.13;4.28;;;;;;;;;;4949816;28;20291;-73
2023/10/01 01:59:44;;;;;;;5.30;3.80;;;;;;;;;;4960250;28;20831;-74
2023/10/01 02:02:14;;;;;;;10.02;4.60;;;;;;;;;;4965580;28;20214;-73
2023/10/01 02:04:58;;;;;;;6.75;4.43;;;;;;;;;;4951410;28;20289;-73
2023/10/01 02:07:33;;;;;;;5.23;4.10;;;;;;;;;;4972748;28;20222;-73
2023/10/01 02:10:04;;;;;;;12.57;4.43;;;;;;;;;;4943953;28;20219;-73
2023/10/01 02:12:30;;;;;;;4.47;4.07;;;;;;;;;;4960677;28;20688;-72
2023/10/01 02:14:56;;;;;;;7.27;4.67;;;;;;;;;;4970137;28;20237;-73
2023/10/01 02:17:31;;;;;;;11.20;4.37;;;;;;;;;;4975188;28;20238;-74
2023/10/01 02:20:00;;;;;;;7.67;4.77;;;;;;;;;;4957652;28;20234;-73
2023/10/01 02:22:27;;;;;;;11.17;4.90;;;;;;;;;;4952294;28;20226;-72
2023/10/01 02:25:00;;;;;;;6.10;4.63;;;;;;;;;;4962335;28;20222;-73
2023/10/01 02:27:28;;;;;;;6.07;4.20;;;;;;;;;;4976794;28;20218;-73
2023/10/01 02:30:14;;;;;;;6.67;4.70;;;;;;;;;;4938528;28;20231;-73
2023/10/01 02:35:35;;;;;;;7.40;5.25;;;;;;;;;;4955970;28;20257;-73
2023/10/01 02:38:36;;;;;;;19.40;5.32;;;;;;;;;;4967275;28;20228;-73
2023/10/01 02:40:57;;;;;;;9.98;5.10;;;;;;;;;;4965588;28;20604;-73
2023/10/01 02:43:34;;;;;;;5.38;4.88;;;;;;;;;;4962463;28;20273;-73
2023/10/01 02:46:07;;;;;;;7.40;5.25;;;;;;;;;;4953603;28;20257;-72
2023/10/01 02:48:36;;;;;;;9.60;5.47;;;;;;;;;;4964488;28;20231;-73
2023/10/01 02:51:15;;;;;;;6.82;5.53;;;;;;;;;;4952362;28;20842;-73
2023/10/01 02:54:01;;;;;;;8.48;5.60;;;;;;;;;;4954058;28;20269;-72
2023/10/01 02:56:33;;;;;;;8.80;5.63;;;;;;;;;;4965942;28;20232;-73
2023/10/01 02:59:09;;;;;;;6.00;4.85;;;;;;;;;;4961659;28;20261;-73
2023/10/01 03:01:39;;;;;;;6.43;5.50;;;;;;;;;;4958174;28;20242;-73
2023/10/01 03:04:12;;;;;;;11.13;5.20;;;;;;;;;;4968376;28;20237;-73
2023/10/01 03:06:53;;;;;;;5.90;5.30;;;;;;;;;;4954877;28;20711;-73
2023/10/01 03:09:39;;;;;;;9.00;5.88;;;;;;;;;;4962577;28;20238;-73
2023/10/01 03:12:35;;;;;;;6.55;5.88;;;;;;;;;;4965329;28;20318;-73
2023/10/01 03:15:16;;;;;;;6.85;5.65;;;;;;;;;;4971681;28;20716;-72
2023/10/01 03:26:07;;;;;;;6.13;5.60;;;;;;;;;;4972868;28;20611;-73
2023/10/01 03:31:23;;;;;;;6.50;5.83;;;;;;;;;;4960671;28;20230;-73
2023/10/01 03:33:54;;;;;;;7.30;5.80;;;;;;;;;;4948544;28;20222;-73
2023/10/01 03:36:32;;;;;;;7.82;6.00;;;;;;;;;;4951422;28;20235;-72
2023/10/01 03:39:25;;;;;;;7.40;5.80;;;;;;;;;;4968890;28;20246;-73
2023/10/01 03:42:10;;;;;;;9.40;6.33;;;;;;;;;;4934739;28;20258;-73
2023/10/01 03:47:29;;;;;;;6.90;6.20;;;;;;;;;;4973370;28;20259;-72
2023/10/01 03:49:55;;;;;;;9.93;6.10;;;;;;;;;;4958456;28;20316;-73
2023/10/01 03:52:21;;;;;;;7.27;6.03;;;;;;;;;;4960839;28;20330;-72
2023/10/01 03:57:30;;;;;;;8.97;6.20;;;;;;;;;;4966019;28;20724;-73
2023/10/01 04:03:48;;;;;;;7.33;5.63;;;;;;;;;;4959628;28;20290;-73
2023/10/01 04:06:16;;;;;;;10.00;5.87;;;;;;;;;;4950475;28;21115;-73
2023/10/01 04:08:44;;;;;;;7.88;6.20;;;;;;;;;;4966351;28;20689;-73
2023/10/01 04:11:11;;;;;;;7.55;6.10;;;;;;;;;;4967354;28;20238;-73
2023/10/01 04:13:41;;;;;;;6.90;6.10;;;;;;;;;;4960578;28;20226;-72
2023/10/01 04:16:15;;;;;;;9.35;6.25;;;;;;;;;;4966810;28;20230;-74
2023/10/01 04:18:45;;;;;;;12.63;6.70;;;;;;;;;;4953967;28;20317;-73
2023/10/01 04:21:25;;;;;;;6.57;5.88;;;;;;;;;;4967226;28;20355;-72
2023/10/01 04:23:50;;;;;;;7.87;5.97;;;;;;;;;;4966329;28;20726;-72
2023/10/01 04:26:18;;;;;;;8.87;6.23;;;;;;;;;;4978762;28;20222;-73
2023/10/01 04:28:54;;;;;;;9.45;7.53;;;;;;;;;;4962125;28;20696;-73
2023/10/01 04:34:10;;;;;;;7.60;6.27;;;;;;;;;;4962189;28;20708;-73
2023/10/01 04:36:50;;;;;;;8.57;6.50;;;;;;;;;;4971611;28;20306;-73
2023/10/01 04:39:16;;;;;;;6.70;5.97;;;;;;;;;;4945184;28;20228;-73
2023/10/01 04:41:42;;;;;;;6.83;6.03;;;;;;;;;;4961007;28;20213;-72
2023/10/01 04:44:13;;;;;;;9.83;6.77;;;;;;;;;;4978161;28;20241;-73
2023/10/01 04:46:45;;;;;;;6.73;6.00;;;;;;;;;;4993710;28;20256;-73
2023/10/01 04:49:31;;;;;;;7.53;6.30;;;;;;;;;;4991895;28;20300;-73
2023/10/01 04:51:58;;;;;;;10.73;6.80;;;;;;;;;;4923081;28;1115139;-73
2023/10/01 04:54:28;;;;;;;7.20;6.30;;;;;;;;;;4978056;28;20505;-73
2023/10/01 04:56:57;;;;;;;9.53;6.83;;;;;;;;;;4967360;28;20277;-74
2023/10/01 04:59:24;;;;;;;7.13;6.43;;;;;;;;;;4947431;28;20277;-73
2023/10/01 05:01:56;;;;;;;10.43;6.60;;;;;;;;;;4967128;28;20242;-73
2023/10/01 05:04:28;;;;;;;8.53;6.43;;;;;;;;;;4960102;28;20218;-73
2023/10/01 05:07:10;;;;;;;7.90;6.40;;;;;;;;;;4957250;28;20258;-73
2023/10/01 05:09:38;;;;;;;8.20;6.50;;;;;;;;;;4974494;28;20668;-73
2023/10/01 05:12:04;;;;;;;8.90;6.50;;;;;;;;;;4965540;28;20288;-73
2023/10/01 05:14:56;;;;;;;7.83;7.03;;;;;;;;;;4954340;28;20227;-73
2023/10/01 05:17:25;;;;;;;8.33;6.93;;;;;;;;;;4973033;28;20700;-73
2023/10/01 05:19:51;;;;;;;8.13;6.57;;;;;;;;;;4986290;28;20298;-73
2023/10/01 05:22:17;;;;;;;8.93;7.57;;;;;;;;;;4980107;28;20229;-72
2023/10/01 05:24:49;;;;;;;8.23;6.93;;;;;;;;;;4978730;28;20265;-73
2023/10/01 05:27:24;;;;;;;10.23;7.13;;;;;;;;;;4967613;28;20230;-73
2023/10/01 05:29:54;;;;;;;7.93;6.90;;;;;;;;;;4960844;28;20230;-73
2023/10/01 05:32:24;;;;;;;8.17;6.90;;;;;;;;;;4974842;28;20375;-73
2023/10/01 05:34:50;;;;;;;9.83;6.73;;;;;;;;;;4966413;28;20242;-73
2023/10/01 05:37:24;;;;;;;7.97;7.00;;;;;;;;;;4957837;28;20699;-73
2023/10/01 05:39:55;;;;;;;10.43;6.57;;;;;;;;;;4976971;28;20244;-72
2023/10/01 05:42:29;;;;;;;10.33;6.73;;;;;;;;;;4960169;28;20252;-72
2023/10/01 05:44:59;;;;;;;9.57;7.47;;;;;;;;;;4992100;28;20222;-73
2023/10/01 05:47:41;;;;;;;8.13;7.33;;;;;;;;;;4965188;28;20317;-73
2023/10/01 05:50:14;;;;;;;11.43;7.70;;;;;;;;;;4978320;28;20670;-72
2023/10/01 05:52:45;;;;;;;11.90;8.17;;;;;;;;;;4981906;28;20579;-73
2023/10/01 05:55:15;;;;;;;12.40;8.00;;;;;;;;;;4958403;28;20243;-71
2023/10/01 05:57:43;;;;;;;9.47;7.77;;;;;;;;;;4977726;28;20285;-72
2023/10/01 06:00:18;;;;;;;9.23;8.00;;;;;;;;;;4945697;28;20778;-73
2023/10/01 06:03:00;;;;;;;8.17;7.37;;;;;;;;;;4994591;28;20230;-73
2023/10/01 06:05:42;;;;;;;10.30;7.67;;;;;;;;;;4969485;28;20563;-73
2023/10/01 06:08:24;;;;;;;9.00;8.10;;;;;;;;;;4983690;28;20234;-73
2023/10/01 06:11:04;;;;;;;11.17;7.33;;;;;;;;;;4978483;28;20244;-73
2023/10/01 06:13:35;;;;;;;10.17;8.07;;;;;;;;;;4959547;28;20718;-72
2023/10/01 06:16:16;;;;;;;10.87;8.43;;;;;;;;;;4967965;28;20269;-72
2023/10/01 06:18:52;;;;;;;14.37;8.53;;;;;;;;;;4970381;28;20230;-73
2023/10/01 06:21:26;;;;;;;8.60;7.55;;;;;;;;;;4946094;28;20644;-74
2023/10/01 06:23:53;;;;;;;9.63;8.17;;;;;;;;;;4969439;28;20234;-73
2023/10/01 06:29:23;;;;;;;10.23;7.33;;;;;;;;;;4963996;28;20230;-74
2023/10/01 06:32:00;;;;;;;8.73;7.83;;;;;;;;;;4965401;28;20223;-73
2023/10/01 06:34:32;;;;;;;9.30;7.63;;;;;;;;;;4948736;28;20229;-73
2023/10/01 06:36:58;;;;;;;10.03;7.77;;;;;;;;;;4969615;28;20222;-73
2023/10/01 06:39:35;;;;;;;8.50;7.07;;;;;;;;;;4968164;28;20229;-73
2023/10/01 06:42:19;;;;;;;8.52;7.22;;;;;;;;;;4979726;28;20293;-73
2023/10/01 06:44:48;;;;;;;9.13;7.47;;;;;;;;;;4973712;28;20218;-73
2023/10/01 06:47:14;;;;;;;9.13;6.55;;;;;;;;;;4965177;28;20321;-74
2023/10/01 06:49:57;;;;;;;8.65;7.50;;;;;;;;;;4970708;28;20219;-74
2023/10/01 06:52:32;;;;;;;7.55;6.68;;;;;;;;;;4994693;28;20347;-73
2023/10/01 06:55:03;;;;;;;7.45;6.72;;;;;;;;;;4998558;28;20248;-73
2023/10/01 06:57:33;;;;;;;10.10;7.43;;;;;;;;;;4982932;28;20591;-73
2023/10/01 07:00:13;;;;;;;7.45;6.72;;;;;;;;;;4969094;28;20254;-73
2023/10/01 07:02:40;;;;;;;8.25;7.28;;;;;;;;;;4968951;28;20230;-73
2023/10/01 07:05:13;;;;;;;8.15;7.35;;;;;;;;;;4974954;28;20220;-74
2023/10/01 07:07:44;;;;;;;13.38;7.25;;;;;;;;;;4962975;28;20594;-73
2023/10/01 07:10:14;;;;;;;8.95;6.97;;;;;;;;;;4969903;28;20318;-73
2023/10/01 07:12:39;;;;;;;8.85;7.45;;;;;;;;;;4952556;28;20229;-74
2023/10/01 07:15:06;;;;;;;15.68;7.63;;;;;;;;;;4935984;28;20692;-72
2023/10/01 07:17:35;;;;;;;9.70;7.43;;;;;;;;;;4968407;28;20229;-73
2023/10/01 07:20:00;;;;;;;13.85;7.70;;;;;;;;;;4968376;28;20219;-73
2023/10/01 07:22:38;;;;;;;8.00;7.20;;;;;;;;;;4974964;28;20215;-73
2023/10/01 07:25:28;;;;;;;10.40;7.40;;;;;;;;;;4961397;28;20226;-73
2023/10/01 07:27:56;;;;;;;9.40;7.15;;;;;;;;;;4970854;28;20222;-73
2023/10/01 07:30:39;;;;;;;10.15;7.88;;;;;;;;;;4973553;28;20688;-74
2023/10/01 07:33:08;;;;;;;9.00;7.82;;;;;;;;;;4972476;28;20723;-73
2023/10/01 07:35:34;;;;;;;8.52;7.28;;;;;;;;;;4944122;28;20238;-72
2023/10/01 07:38:00;;;;;;;11.35;7.53;;;;;;;;;;4967832;28;20323;-73
2023/10/01 07:40:50;;;;;;;9.00;7.55;;;;;;;;;;4959355;28;20983;-73
2023/10/01 07:43:18;;;;;;;10.02;7.88;;;;;;;;;;4961408;28;20222;-73
2023/10/01 07:45:55;;;;;;;12.85;8.10;;;;;;;;;;4963758;28;20229;-73
2023/10/01 07:48:27;;;;;;;8.85;7.88;;;;;;;;;;4963274;28;20225;-73
2023/10/01 07:50:56;;;;;;;8.70;7.68;;;;;;;;;;4964018;28;20226;-73
2023/10/01 07:53:33;;;;;;;9.65;7.82;;;;;;;;;;4952199;28;20700;-73
2023/10/01 07:56:02;;;;;;;10.77;8.07;;;;;;;;;;4969352;28;20755;-74
2023/10/01 07:58:56;;;;;;;8.68;7.85;;;;;;;;;;4964249;28;20222;-73
2023/10/01 08:01:42;;;;;;;9.05;7.57;;;;;;;;;;4977498;28;20245;-72
2023/10/01 08:04:38;;;;;;;8.57;7.65;;;;;;;;;;4968689;28;20223;-72
2023/10/01 08:07:05;;;;;;;7.97;7.18;;;;;;;;;;4966249;28;20698;-73
2023/10/01 08:09:39;;;;;;;12.00;7.95;;;;;;;;;;4959199;28;20298;-73
2023/10/01 08:12:05;;;;;;;8.32;7.53;;;;;;;;;;4976267;28;20229;-73
2023/10/01 08:14:34;;;;;;;12.20;7.22;;;;;;;;;;4959772;28;20230;-74
2023/10/01 08:17:02;;;;;;;9.20;7.43;;;;;;;;;;4962418;28;20218;-73
2023/10/01 08:19:49;;;;;;;8.52;7.60;;;;;;;;;;4954964;28;20237;-73
2023/10/01 08:22:15;;;;;;;8.98;7.18;;;;;;;;;;4973792;28;20217;-73
2023/10/01 08:24:45;;;;;;;12.18;7.97;;;;;;;;;;4939246;28;20225;-73
2023/10/01 08:27:14;;;;;;;9.95;7.88;;;;;;;;;;4964120;28;20230;-73
2023/10/01 08:32:38;;;;;;;9.52;7.95;;;;;;;;;;4966603;28;20309;-74
2023/10/01 08:35:08;;;;;;;10.35;7.57;;;;;;;;;;4967340;28;20230;-74
2023/10/01 08:37:37;;;;;;;8.38;7.10;;;;;;;;;;4964900;28;20225;-73
2023/10/01 08:40:17;;;;;;;8.15;6.93;;;;;;;;;;4975855;28;20250;-74
2023/10/01 08:42:47;;;;;;;8.45;6.80;;;;;;;;;;4944325;28;20310;-73
2023/10/01 08:45:19;;;;;;;9.15;6.30;;;;;;;;;;4963732;28;20223;-73
2023/10/01 08:47:47;;;;;;;9.90;7.03;;;;;;;;;;4942507;28;20257;-73
2023/10/01 08:50:19;;;;;;;7.70;6.28;;;;;;;;;;4951338;28;20275;-73
2023/10/01 09:00:53;;;;;;;5.95;5.25;;;;;;;;;;4968022;28;20233;-73
2023/10/01 09:03:34;;;;;;;5.85;4.97;;;;;;;;;;4967960;28;20297;-73
2023/10/01 09:06:24;;;;;;;8.60;5.45;;;;;;;;;;4947630;28;20238;-74
2023/10/01 09:08:54;;;;;;;15.00;5.68;;;;;;;;;;4962143;28;20233;-73
2023/10/01 09:11:35;;;;;;;9.38;5.80;;;;;;;;;;4978913;28;20395;-74
2023/10/01 09:14:20;;;;;;;5.97;5.35;;;;;;;;;;4982259;28;20252;-74
2023/10/01 09:16:57;;;;;;;5.82;5.13;;;;;;;;;;4988302;28;20659;-74
2023/10/01 09:19:30;;;;;;;8.13;5.53;;;;;;;;;;4994817;28;20913;-73
2023/10/01 09:22:35;;;;;;;6.40;5.10;;;;;;;;;;4981935;28;20584;-74
2023/10/01 09:25:19;;;;;;;7.28;5.13;;;;;;;;;;4953801;28;20214;-75
2023/10/01 09:30:58;;;;;;;8.27;6.53;;;;;;;;;;4985791;28;20236;-74
2023/10/01 09:33:26;;;;;;;10.85;7.18;;;;;;;;;;4983962;28;20287;-74
2023/10/01 09:36:00;;;;;;;9.25;6.63;;;;;;;;;;4965748;28;20728;-73
2023/10/01 09:38:28;;;;;;;7.82;6.43;;;;;;;;;;4975495;28;20244;-73
2023/10/01 09:41:01;;;;;;;7.40;6.32;;;;;;;;;;4973456;28;20272;-74
2023/10/01 09:43:31;;;;;;;6.68;5.95;;;;;;;;;;4986240;28;20702;-74
2023/10/01 09:46:00;;;;;;;8.48;6.05;;;;;;;;;;4965375;28;20861;-74
2023/10/01 09:48:37;;;;;;;8.50;6.30;;;;;;;;;;4954409;28;20228;-74
2023/10/01 09:51:08;;;;;;;8.63;5.90;;;;;;;;;;4959477;28;20218;-74
2023/10/01 09:54:01;;;;;;;14.85;6.03;;;;;;;;;;4969675;28;20236;-75
2023/10/01 09:56:27;;;;;;;11.80;5.45;;;;;;;;;;4962839;28;20318;-73
2023/10/01 09:59:03;;;;;;;7.47;5.70;;;;;;;;;;4957096;28;20210;-74
2023/10/01 10:01:41;;;;;;;7.93;5.78;;;;;;;;;;4961593;28;20308;-73
2023/10/01 10:04:08;;;;;;;6.35;5.63;;;;;;;;;;4971582;28;20222;-74
2023/10/01 10:06:39;;;;;;;8.00;5.35;;;;;;;;;;4975623;28;20358;-73
2023/10/01 10:09:08;;;;;;;6.55;5.70;;;;;;;;;;4970421;28;20214;-74
2023/10/01 10:11:45;;;;;;;9.55;6.03;;;;;;;;;;4948913;28;20711;-74
2023/10/01 10:14:33;;;;;;;7.55;6.25;;;;;;;;;;4946520;28;20713;-74
2023/10/01 10:17:07;;;;;;;6.45;5.65;;;;;;;;;;4961444;28;20240;-72
2023/10/01 10:19:47;;;;;;;7.72;5.45;;;;;;;;;;4962518;28;20243;-73
2023/10/01 10:22:25;;;;;;;10.55;5.72;;;;;;;;;;4962735;28;20229;-74
2023/10/01 10:24:54;;;;;;;7.70;5.47;;;;;;;;;;4969954;28;20260;-74
2023/10/01 10:27:31;;;;;;;11.07;5.60;;;;;;;;;;4969684;28;20221;-73
2023/10/01 10:29:56;;;;;;;6.75;5.07;;;;;;;;;;4964631;28;20585;-74
2023/10/01 10:33:01;;;;;;;7.38;5.28;;;;;;;;;;4962493;28;20222;-73
2023/10/01 10:35:29;;;;;;;8.70;4.65;;;;;;;;;;4966997;28;20368;-73
2023/10/01 10:37:57;;;;;;;9.85;5.43;;;;;;;;;;4958659;28;20304;-73
2023/10/01 10:40:23;;;;;;;7.50;5.00;;;;;;;;;;4974962;28;20731;-74
2023/10/01 10:43:02;;;;;;;7.40;5.32;;;;;;;;;;4969701;28;20231;-74
2023/10/01 10:45:42;;;;;;;6.65;4.93;;;;;;;;;;4963385;28;20226;-73
2023/10/01 10:48:10;;;;;;;6.00;4.47;;;;;;;;;;4944703;28;20217;-73
2023/10/01 10:50:46;;;;;;;12.18;4.85;;;;;;;;;;4954392;28;20222;-74
2023/10/01 10:53:25;;;;;;;7.53;5.07;;;;;;;;;;4962747;28;20226;-73
2023/10/01 10:56:10;;;;;;;8.98;5.28;;;;;;;;;;4978006;28;20230;-74
2023/10/01 10:58:53;;;;;;;6.97;4.40;;;;;;;;;;4971066;28;20244;-74
2023/10/01 11:01:19;;;;;;;6.18;4.70;;;;;;;;;;4961703;28;20210;-73
2023/10/01 11:03:48;;;;;;;8.75;4.82;;;;;;;;;;4958676;28;20598;-73
2023/10/01 11:06:23;;;;;;;8.25;5.10;;;;;;;;;;4958550;28;20276;-74
2023/10/01 11:08:54;;;;;;;7.15;4.43;;;;;;;;;;4963030;28;20222;-73
2023/10/01 11:11:30;;;;;;;7.57;5.18;;;;;;;;;;4960134;28;20231;-73
2023/10/01 11:14:02;;;;;;;12.68;5.50;;;;;;;;;;4949866;28;20222;-73
2023/10/01 11:16:36;;;;;;;5.95;4.68;;;;;;;;;;4964033;28;20230;-73
2023/10/01 11:19:14;;;;;;;7.93;5.00;;;;;;;;;;4981595;28;20214;-73
2023/10/01 11:21:58;;;;;;;6.80;4.82;;;;;;;;;;4980370;28;20237;-74
2023/10/01 11:24:29;;;;;;;12.00;5.45;;;;;;;;;;4985972;28;20234;-74
2023/10/01 11:27:24;;;;;;;6.90;5.10;;;;;;;;;;4975411;28;20628;-74
2023/10/01 11:29:58;;;;;;;8.05;5.75;;;;;;;;;;4977119;28;20226;-73
2023/10/01 11:32:58;;;;;;;10.45;5.57;;;;;;;;;;4979042;28;20222;-74
2023/10/01 11:35:35;;;;;;;7.03;5.10;;;;;;;;;;4974251;28;20233;-72
2023/10/01 11:38:11;;;;;;;7.07;5.13;;;;;;;;;;4984821;28;20606;-73
2023/10/01 11:44:02;;;;;;;20.88;5.95;;;;;;;;;;4981396;28;20624;-73
2023/10/01 11:49:18;;;;;;;10.57;5.80;;;;;;;;;;4981749;28;20254;-73
2023/10/01 11:51:54;;;;;;;6.88;5.20;;;;;;;;;;4966720;28;20226;-73
2023/10/01 11:54:25;;;;;;;12.50;5.80;;;;;;;;;;4964236;28;20215;-73
2023/10/01 11:57:08;;;;;;;11.07;5.82;;;;;;;;;;4952548;28;20296;-73
2023/10/01 11:59:42;;;;;;;16.95;6.18;;;;;;;;;;4976903;28;20218;-75
2023/10/01 12:02:26;;;;;;;7.57;5.95;;;;;;;;;;4960015;28;20683;-74
2023/10/01 12:05:00;;;;;;;8.98;5.68;;;;;;;;;;4951724;28;20215;-74
2023/10/01 12:07:32;;;;;;;7.55;5.00;;;;;;;;;;4961116;28;20366;-74
2023/10/01 12:10:04;;;;;;;13.15;5.95;;;;;;;;;;4967122;28;20222;-75
2023/10/01 12:12:37;;;;;;;9.80;5.68;;;;;;;;;;4957191;28;20229;-75
2023/10/01 12:18:07;;;;;;;9.52;7.75;;;;;;;;;;4965439;28;20277;-74
2023/10/01 12:20:39;;;;;;;12.43;6.93;;;;;;;;;;4979533;28;20225;-74
2023/10/01 12:23:11;;;;;;;11.93;6.85;;;;;;;;;;4968650;28;20218;-74
2023/10/01 12:25:46;;;;;;;7.68;5.10;;;;;;;;;;4967199;28;20247;-73
2023/10/01 12:28:25;;;;;;;6.38;4.80;;;;;;;;;;4971549;28;20254;-72
2023/10/01 12:30:57;;;;;;;6.78;4.50;;;;;;;;;;4975854;28;20246;-73
2023/10/01 12:33:43;;;;;;;6.28;4.38;;;;;;;;;;4952625;28;21086;-74
2023/10/01 12:36:42;;;;;;;11.18;4.80;;;;;;;;;;4961730;28;20715;-75
2023/10/01 12:41:56;;;;;;;8.95;5.00;;;;;;;;;;4973633;28;20719;-74
2023/10/01 12:44:28;;;;;;;7.85;4.70;;;;;;;;;;4959249;28;20218;-75
2023/10/01 12:47:00;;;;;;;7.97;4.97;;;;;;;;;;4967739;28;20301;-73
2023/10/01 12:49:32;;;;;;;7.68;4.60;;;;;;;;;;4975259;28;20313;-72
2023/10/01 12:52:03;;;;;;;8.32;4.75;;;;;;;;;;4966259;28;20222;-72
2023/10/01 12:54:36;;;;;;;9.35;4.85;;;;;;;;;;4968144;28;20229;-74
2023/10/01 12:57:02;;;;;;;7.57;4.53;;;;;;;;;;4943016;28;20313;-73
2023/10/01 12:59:44;;;;;;;7.25;4.63;;;;;;;;;;4951742;28;20618;-74
2023/10/01 13:05:16;;;;;;;7.00;4.85;;;;;;;;;;4961600;28;20630;-73
2023/10/01 13:07:50;;;;;;;11.48;5.10;;;;;;;;;;4959175;28;20234;-73
2023/10/01 13:10:34;;;;;;;6.47;5.20;;;;;;;;;;4965909;28;20692;-74
2023/10/01 13:13:02;;;;;;;7.95;4.60;;;;;;;;;;4947818;28;20687;-74
2023/10/01 13:15:30;;;;;;;9.35;4.82;;;;;;;;;;4967197;28;20755;-74
2023/10/01 13:18:09;;;;;;;7.65;4.82;;;;;;;;;;4977346;28;20253;-73
2023/10/01 13:23:24;;;;;;;8.02;5.38;;;;;;;;;;4974123;28;20218;-73
2023/10/01 13:26:09;;;;;;;6.05;4.40;;;;;;;;;;4952663;28;20226;-73
2023/10/01 13:28:53;;;;;;;6.10;4.43;;;;;;;;;;4967341;28;20226;-73
2023/10/01 14:09:48;;;;;;;7.90;4.60;;;;;;;;;;4958879;28;20307;-73
2023/10/01 14:15:20;;;;;;;5.85;4.70;;;;;;;;;;4970006;28;20239;-73
2023/10/01 14:17:52;;;;;;;5.95;4.55;;;;;;;;;;4966641;28;20235;-73
2023/10/01 14:23:09;;;;;;;6.60;4.78;;;;;;;;;;4962352;28;20218;-74
2023/10/01 14:25:52;;;;;;;6.53;4.60;;;;;;;;;;4963047;28;20223;-73
2023/10/01 14:28:23;;;;;;;7.38;4.90;;;;;;;;;;4967811;28;20327;-74
2023/10/01 14:30:58;;;;;;;8.77;4.53;;;;;;;;;;4961354;28;20277;-74
2023/10/01 14:33:27;;;;;;;5.90;4.68;;;;;;;;;;4969730;28;20222;-73
2023/10/01 14:35:57;;;;;;;6.82;4.50;;;;;;;;;;4965718;28;20231;-73
2023/10/01 14:38:39;;;;;;;8.63;4.82;;;;;;;;;;4995289;28;23067;-74
2023/10/01 14:41:10;;;;;;;6.95;4.70;;;;;;;;;;4967611;28;20650;-74
2023/10/01 14:43:51;;;;;;;5.50;4.63;;;;;;;;;;4980991;28;20232;-74
2023/10/01 14:46:22;;;;;;;6.43;4.57;;;;;;;;;;4964489;28;20214;-74
2023/10/01 14:48:50;;;;;;;6.85;4.72;;;;;;;;;;4972766;28;20288;-73
2023/10/01 14:51:26;;;;;;;6.07;4.57;;;;;;;;;;4964077;28;20217;-73
2023/10/01 14:53:54;;;;;;;5.03;4.43;;;;;;;;;;4982649;28;20281;-73
2023/10/01 14:56:31;;;;;;;5.18;4.35;;;;;;;;;;4981697;28;20322;-74
2023/10/01 14:59:05;;;;;;;5.28;4.05;;;;;;;;;;4972266;28;20248;-74
2023/10/01 15:01:40;;;;;;;6.25;4.72;;;;;;;;;;4979232;28;20361;-73
2023/10/01 15:04:20;;;;;;;6.05;4.13;;;;;;;;;;4959046;28;20230;-74
2023/10/01 15:06:56;;;;;;;10.48;4.75;;;;;;;;;;4985479;28;20253;-73
2023/10/01 15:09:28;;;;;;;5.82;4.63;;;;;;;;;;4970940;28;20302;-73
2023/10/01 15:11:56;;;;;;;7.35;4.65;;;;;;;;;;4969161;28;20659;-73
2023/10/01 15:14:27;;;;;;;6.97;4.22;;;;;;;;;;4991308;28;20223;-72
2023/10/01 15:16:56;;;;;;;8.93;4.85;;;;;;;;;;4959498;28;20246;-74
2023/10/01 15:19:30;;;;;;;5.43;4.45;;;;;;;;;;4959430;28;20230;-73
2023/10/01 15:22:08;;;;;;;6.75;4.32;;;;;;;;;;4984209;28;20230;-73
2023/10/01 15:24:42;;;;;;;6.30;4.80;;;;;;;;;;4982378;28;20221;-73
2023/10/01 15:27:12;;;;;;;7.80;4.65;;;;;;;;;;4972049;28;20238;-74
2023/10/01 15:29:38;;;;;;;6.93;4.68;;;;;;;;;;4997903;28;20233;-74
2023/10/01 15:32:14;;;;;;;5.43;4.28;;;;;;;;;;4994526;28;20312;-73
2023/10/01 15:34:43;;;;;;;6.55;4.28;;;;;;;;;;4953826;28;20234;-74
2023/10/01 15:37:11;;;;;;;5.70;4.50;;;;;;;;;;4976494;28;20305;-74
2023/10/01 15:39:44;;;;;;;6.90;4.70;;;;;;;;;;4952716;28;20766;-74
2023/10/01 15:42:17;;;;;;;6.28;4.75;;;;;;;;;;4970112;28;20313;-74
2023/10/01 15:44:54;;;;;;;7.85;4.50;;;;;;;;;;5000070;28;20283;-74
2023/10/01 15:50:12;;;;;;;7.38;4.35;;;;;;;;;;4984228;28;20264;-74
2023/10/01 15:52:50;;;;;;;6.30;4.90;;;;;;;;;;4973151;28;20232;-74
2023/10/01 15:55:33;;;;;;;5.00;4.40;;;;;;;;;;4978190;28;20229;-74
2023/10/01 15:58:02;;;;;;;4.80;4.30;;;;;;;;;;4970085;28;20223;-74
2023/10/01 16:00:34;;;;;;;6.28;4.35;;;;;;;;;;4966252;28;20225;-73
2023/10/01 16:03:03;;;;;;;10.10;5.05;;;;;;;;;;4962576;28;20625;-74
2023/10/01 16:05:41;;;;;;;7.07;4.90;;;;;;;;;;4960444;28;20218;-73
2023/10/01 16:08:22;;;;;;;9.13;4.68;;;;;;;;;;4960467;28;20233;-74
2023/10/01 16:10:51;;;;;;;8.20;4.50;;;;;;;;;;4974752;28;20313;-74
2023/10/01 16:13:29;;;;;;;5.50;4.70;;;;;;;;;;4952107;28;20692;-73
2023/10/01 16:16:03;;;;;;;5.68;4.88;;;;;;;;;;4952415;28;20230;-73
2023/10/01 16:18:30;;;;;;;6.88;4.80;;;;;;;;;;4982709;28;20302;-74
2023/10/01 16:21:02;;;;;;;8.30;5.03;;;;;;;;;;4979229;28;20318;-74
2023/10/01 16:23:30;;;;;;;7.63;5.40;;;;;;;;;;4970621;28;20212;-75
2023/10/01 16:25:56;;;;;;;7.35;4.65;;;;;;;;;;4960745;28;20210;-74
2023/10/01 16:28:23;;;;;;;6.68;4.57;;;;;;;;;;4994970;28;20232;-74
2023/10/01 16:31:02;;;;;;;8.00;4.80;;;;;;;;;;4981592;28;20325;-75
2023/10/01 16:33:40;;;;;;;9.32;5.53;;;;;;;;;;4976617;28;20217;-74
2023/10/01 16:36:26;;;;;;;9.70;5.18;;;;;;;;;;4974676;28;20242;-73
2023/10/01 16:38:54;;;;;;;6.40;4.90;;;;;;;;;;4949094;28;20238;-74
2023/10/01 16:41:22;;;;;;;7.75;4.95;;;;;;;;;;4972665;28;20232;-73
2023/10/01 16:43:52;;;;;;;9.30;5.30;;;;;;;;;;4973287;28;20226;-73
2023/10/01 16:46:22;;;;;;;9.13;5.15;;;;;;;;;;4966100;28;20226;-74
2023/10/01 16:48:58;;;;;;;7.95;4.97;;;;;;;;;;4973159;28;20706;-74
2023/10/01 16:51:24;;;;;;;8.10;5.32;;;;;;;;;;4966939;28;20229;-73
2023/10/01 16:53:56;;;;;;;8.65;5.55;;;;;;;;;;4953034;28;20242;-74
2023/10/01 16:56:28;;;;;;;5.40;4.38;;;;;;;;;;4991903;28;20220;-73
2023/10/01 16:58:57;;;;;;;7.72;4.85;;;;;;;;;;4980561;28;20232;-73
2023/10/01 17:01:26;;;;;;;5.70;4.70;;;;;;;;;;4966468;28;20365;-74
2023/10/01 17:04:20;;;;;;;11.00;6.22;;;;;;;;;;4966804;28;20226;-74
2023/10/01 17:06:52;;;;;;;7.97;5.70;;;;;;;;;;4965317;28;20227;-74